KSHR

Sheridan County Airport

Sheridan, Wyoming, USA
KSHR 221720Z 2218/2318 34015KT P6SM SCT100 BKN200 FM222300 35012KT P6SM FEW100 FM230300 VRB06KT P6SM FEW100 FM231400 10011KT P6SM SKC
Issued Valid From Valid To
Jul-22 @ 17:20 UTC
(3 hours ago)
Jul-22 @ 18:00 UTC
(2 hours ago)
Jul-23 @ 18:00 UTC
(in 22 hours)
Jul-22 @ 18:00 to Jul-22 @ 23:00
KSHR 221720Z 2218/2318 34015KT P6SM SCT100 BKN200
Wind Visibility Clouds
340° at 15 knots Greater than 6 miles
  • Scattered at 10,000' AGL
  • Broken at 20,000' AGL
From Jul-22 @ 23:00 to Jul-23 @ 03:00
FM222300 35012KT P6SM FEW100
Wind Visibility Clouds
350° at 12 knots Greater than 6 miles
  • Few at 10,000' AGL
From Jul-23 @ 03:00 to Jul-23 @ 14:00
FM230300 VRB06KT P6SM FEW100
Wind Visibility Clouds
Variable at 6 knots Greater than 6 miles
  • Few at 10,000' AGL
From Jul-23 @ 14:00 to Jul-23 @ 18:00
FM231400 10011KT P6SM SKC
Wind Visibility Clouds
100° at 11 knots Greater than 6 miles
  • Clear skies
KSHR 221720Z 2218/2318 34015KT P6SM SCT100 BKN200 FM222300 35012KT P6SM FEW100 FM230300 VRB06KT P6SM FEW100 FM231400 10011KT P6SM SKC
Issued Jul-22 @ 17:20 UTC
(3 hours ago)
Valid From Jul-22 @ 18:00 UTC
(2 hours ago)
Valid To Jul-23 @ 18:00 UTC
(in 22 hours)
Jul-22 @ 18:00 - Jul-22 @ 23:00
Wind Visibility
340° at 15 knots Greater than 6 miles
Clouds
  • Scattered at 10,000' AGL
  • Broken at 20,000' AGL
From Jul-22 @ 23:00 - Jul-23 @ 03:00
Wind Visibility
350° at 12 knots Greater than 6 miles
Clouds
  • Few at 10,000' AGL
From Jul-23 @ 03:00 - Jul-23 @ 14:00
Wind Visibility
Variable at 6 knots Greater than 6 miles
Clouds
  • Few at 10,000' AGL
From Jul-23 @ 14:00 - Jul-23 @ 18:00
Wind Visibility
100° at 11 knots Greater than 6 miles
Clouds
  • Clear skies